createdAt,value
2018-11-26T00:00:34.970Z,922.73
2018-11-26T00:01:35.007Z,922.72
2018-11-26T00:02:34.975Z,922.67
2018-11-26T00:03:34.946Z,922.69
2018-11-26T00:04:34.924Z,922.69
2018-11-26T00:05:34.922Z,922.68
2018-11-26T00:06:34.945Z,922.64
2018-11-26T00:07:34.932Z,922.63
2018-11-26T00:08:34.894Z,922.64
2018-11-26T00:09:34.872Z,922.65
2018-11-26T00:10:34.875Z,922.63
2018-11-26T00:11:34.849Z,922.60
2018-11-26T00:12:34.841Z,922.64
2018-11-26T00:13:34.847Z,922.61
2018-11-26T00:14:34.817Z,922.62
2018-11-26T00:15:34.814Z,922.62
2018-11-26T00:16:34.793Z,922.58
2018-11-26T00:17:34.783Z,922.57
2018-11-26T00:18:34.796Z,922.56
2018-11-26T00:19:34.766Z,922.56
2018-11-26T00:20:34.774Z,922.54
2018-11-26T00:21:34.747Z,922.56
2018-11-26T00:22:34.727Z,922.51
2018-11-26T00:23:34.742Z,922.50
2018-11-26T00:24:34.733Z,922.51
2018-11-26T00:25:34.700Z,922.49
2018-11-26T00:26:34.691Z,922.48
2018-11-26T00:27:34.692Z,922.53
2018-11-26T00:28:34.681Z,922.47
2018-11-26T00:29:34.659Z,922.50
2018-11-26T00:30:34.646Z,922.52
2018-11-26T00:31:34.628Z,922.46
2018-11-26T00:32:34.633Z,922.44
2018-11-26T00:33:34.622Z,922.44
2018-11-26T00:34:34.637Z,922.43
2018-11-26T00:35:34.626Z,922.43
2018-11-26T00:36:34.573Z,922.43
2018-11-26T00:37:34.562Z,922.43
2018-11-26T00:38:34.575Z,922.43
2018-11-26T00:39:34.541Z,922.48
2018-11-26T00:40:34.530Z,922.40
2018-11-26T00:41:34.523Z,922.42
2018-11-26T00:42:34.561Z,922.42
2018-11-26T00:43:34.520Z,922.39
2018-11-26T00:44:34.493Z,922.36
2018-11-26T00:45:34.480Z,922.36
2018-11-26T00:46:34.510Z,922.36
2018-11-26T00:47:34.454Z,922.37
2018-11-26T00:48:34.477Z,922.34
2018-11-26T00:49:34.432Z,922.33
2018-11-26T00:50:34.431Z,922.34
2018-11-26T00:51:34.435Z,922.34
2018-11-26T00:52:34.406Z,922.31
2018-11-26T00:53:34.402Z,922.29
2018-11-26T00:54:34.377Z,922.30
2018-11-26T00:55:34.403Z,922.29
2018-11-26T00:56:34.357Z,922.30
2018-11-26T00:57:34.343Z,922.25
2018-11-26T00:58:34.361Z,922.30
2018-11-26T00:59:34.323Z,922.28
2018-11-26T01:00:34.320Z,922.30
2018-11-26T01:01:34.314Z,922.30
2018-11-26T01:02:34.290Z,922.35
2018-11-26T01:03:34.292Z,922.32
2018-11-26T01:04:34.270Z,922.35
2018-11-26T01:05:34.314Z,922.34
2018-11-26T01:06:34.255Z,922.35
2018-11-26T01:07:34.237Z,922.37
2018-11-26T01:08:34.245Z,922.39
2018-11-26T01:09:34.256Z,922.40
2018-11-26T01:10:34.206Z,922.41
2018-11-26T01:11:34.200Z,922.39
2018-11-26T01:12:34.184Z,922.36
2018-11-26T01:13:34.190Z,922.38
2018-11-26T01:14:34.160Z,922.32
2018-11-26T01:15:34.183Z,922.27
2018-11-26T01:16:34.141Z,922.28
2018-11-26T01:17:34.128Z,922.29
2018-11-26T01:18:34.132Z,922.27
2018-11-26T01:19:34.110Z,922.30
2018-11-26T01:20:34.222Z,922.25
2018-11-26T01:21:34.657Z,922.21
2018-11-26T01:22:34.068Z,922.20
2018-11-26T01:23:34.100Z,922.21
2018-11-26T01:24:34.050Z,922.19
2018-11-26T01:25:34.059Z,922.19
2018-11-26T01:26:34.025Z,922.16
2018-11-26T01:27:34.014Z,922.20
2018-11-26T01:28:34.025Z,922.19
2018-11-26T01:29:34.013Z,922.19
2018-11-26T01:30:33.985Z,922.17
2018-11-26T01:31:33.978Z,922.19
2018-11-26T01:32:33.962Z,922.22
2018-11-26T01:33:33.959Z,922.21
2018-11-26T01:34:34.046Z,922.20
2018-11-26T01:35:33.929Z,922.18
2018-11-26T01:36:33.930Z,922.19
2018-11-26T01:37:33.917Z,922.18
2018-11-26T01:38:33.902Z,922.19
2018-11-26T01:39:33.936Z,922.20
2018-11-26T01:40:33.876Z,922.17
2018-11-26T01:41:33.874Z,922.19
2018-11-26T01:42:33.860Z,922.15
2018-11-26T01:43:33.849Z,922.14
2018-11-26T01:44:33.846Z,922.11
2018-11-26T01:45:33.835Z,922.16
2018-11-26T01:46:33.814Z,922.11
2018-11-26T01:47:33.799Z,922.10
2018-11-26T01:48:33.792Z,922.10
2018-11-26T01:49:33.811Z,922.12
2018-11-26T01:50:33.774Z,922.09
2018-11-26T01:51:33.767Z,922.12
2018-11-26T01:52:33.760Z,922.09
2018-11-26T01:53:33.747Z,922.14
2018-11-26T01:54:33.735Z,922.15
2018-11-26T01:55:33.717Z,922.19
2018-11-26T01:56:33.702Z,922.19
2018-11-26T01:57:33.711Z,922.19
2018-11-26T01:58:33.701Z,922.19
2018-11-26T01:59:33.684Z,922.20
2018-11-26T02:00:33.661Z,922.24
2018-11-26T02:01:33.657Z,922.23
2018-11-26T02:02:33.633Z,922.25
2018-11-26T02:03:33.641Z,922.24
2018-11-26T02:04:33.676Z,922.23
2018-11-26T02:05:33.603Z,922.25
2018-11-26T02:06:33.597Z,922.19
2018-11-26T02:07:33.583Z,922.16
2018-11-26T02:08:33.571Z,922.18
2018-11-26T02:09:33.610Z,922.13
2018-11-26T02:10:33.548Z,922.14
2018-11-26T02:11:33.541Z,922.16
2018-11-26T02:12:33.540Z,922.14
2018-11-26T02:13:33.522Z,922.15
2018-11-26T02:14:33.520Z,922.17
2018-11-26T02:15:33.498Z,922.17
2018-11-26T02:16:33.479Z,922.15
2018-11-26T02:17:33.466Z,922.10
2018-11-26T02:18:33.483Z,922.16
2018-11-26T02:19:33.480Z,922.15
2018-11-26T02:20:33.440Z,922.12
2018-11-26T02:21:33.430Z,922.14
2018-11-26T02:22:33.431Z,922.13
2018-11-26T02:23:33.402Z,922.10
2018-11-26T02:24:33.412Z,922.11
2018-11-26T02:25:33.402Z,922.10
2018-11-26T02:26:33.382Z,922.11
2018-11-26T02:27:33.372Z,922.09
2018-11-26T02:28:33.362Z,922.09
2018-11-26T02:29:33.351Z,922.12
2018-11-26T02:30:33.329Z,922.13
2018-11-26T02:31:33.315Z,922.10
2018-11-26T02:32:33.304Z,922.08
2018-11-26T02:33:33.302Z,922.11
2018-11-26T02:34:33.353Z,922.10
2018-11-26T02:35:33.271Z,922.10
2018-11-26T02:36:33.262Z,922.09
2018-11-26T02:37:33.254Z,922.10
2018-11-26T02:38:33.248Z,922.08
2018-11-26T02:39:33.236Z,922.07
2018-11-26T02:40:33.239Z,922.12
2018-11-26T02:41:33.222Z,922.13
2018-11-26T02:42:33.195Z,922.16
2018-11-26T02:43:33.184Z,922.15
2018-11-26T02:44:33.188Z,922.18
2018-11-26T02:45:33.193Z,922.20
2018-11-26T02:46:33.153Z,922.19
2018-11-26T02:47:33.148Z,922.20
2018-11-26T02:48:33.147Z,922.20
2018-11-26T02:49:33.116Z,922.24
2018-11-26T02:50:33.141Z,922.21
2018-11-26T02:51:33.096Z,922.19
2018-11-26T02:52:33.091Z,922.20
2018-11-26T02:53:33.088Z,922.22
2018-11-26T02:54:33.064Z,922.19
2018-11-26T02:55:33.068Z,922.20
2018-11-26T02:56:33.042Z,922.20
2018-11-26T02:57:33.030Z,922.14
2018-11-26T02:58:33.035Z,922.15
2018-11-26T02:59:33.024Z,922.15
2018-11-26T03:00:33.022Z,922.17
2018-11-26T03:01:32.988Z,922.12
2018-11-26T03:02:32.977Z,922.14
2018-11-26T03:03:33.005Z,922.13
2018-11-26T03:04:32.954Z,922.15
2018-11-26T03:05:32.967Z,922.14
2018-11-26T03:06:32.945Z,922.13
2018-11-26T03:07:32.920Z,922.10
2018-11-26T03:08:32.916Z,922.12
2018-11-26T03:09:32.904Z,922.11
2018-11-26T03:10:32.910Z,922.12
2018-11-26T03:11:32.910Z,922.11
2018-11-26T03:12:32.867Z,922.09
2018-11-26T03:13:32.860Z,922.11
2018-11-26T03:14:32.853Z,922.09
2018-11-26T03:15:32.855Z,922.13
2018-11-26T03:16:32.831Z,922.12
2018-11-26T03:17:32.822Z,922.10
2018-11-26T03:18:32.819Z,922.07
2018-11-26T03:19:32.804Z,922.06
2018-11-26T03:20:32.793Z,922.08
2018-11-26T03:21:32.767Z,922.10
2018-11-26T03:22:32.762Z,922.12
2018-11-26T03:23:32.751Z,922.13
2018-11-26T03:24:32.734Z,922.13
2018-11-26T03:25:32.751Z,922.13
2018-11-26T03:26:32.718Z,922.11
2018-11-26T03:27:32.724Z,922.10
2018-11-26T03:28:32.697Z,922.09
2018-11-26T03:29:32.685Z,922.07
2018-11-26T03:30:32.682Z,922.10
2018-11-26T03:31:32.665Z,922.05
2018-11-26T03:32:32.671Z,922.09
2018-11-26T03:33:32.639Z,922.05
2018-11-26T03:34:32.638Z,922.05
2018-11-26T03:35:32.678Z,922.05
2018-11-26T03:36:32.602Z,922.07
2018-11-26T03:37:32.604Z,922.05
2018-11-26T03:38:32.592Z,922.07
2018-11-26T03:39:32.584Z,922.08
2018-11-26T03:40:32.574Z,922.12
2018-11-26T03:41:32.547Z,922.15
2018-11-26T03:42:32.568Z,922.16
2018-11-26T03:43:32.535Z,922.18
2018-11-26T03:44:32.522Z,922.19
2018-11-26T03:45:32.533Z,922.15
2018-11-26T03:46:32.498Z,922.19
2018-11-26T03:47:32.482Z,922.15
2018-11-26T03:48:32.494Z,922.14
2018-11-26T03:49:32.469Z,922.14
2018-11-26T03:50:32.493Z,922.18
2018-11-26T03:51:32.454Z,922.17
2018-11-26T03:52:32.434Z,922.18
2018-11-26T03:53:32.423Z,922.18
2018-11-26T03:54:32.455Z,922.20
2018-11-26T03:55:32.403Z,922.19
2018-11-26T03:56:32.409Z,922.23
2018-11-26T03:57:32.383Z,922.23
2018-11-26T03:58:32.362Z,922.27
2018-11-26T03:59:32.351Z,922.25
2018-11-26T04:00:32.350Z,922.31
2018-11-26T04:01:32.353Z,922.35
2018-11-26T04:02:32.326Z,922.29
2018-11-26T04:03:32.324Z,922.26
2018-11-26T04:04:32.301Z,922.28
2018-11-26T04:05:32.284Z,922.27
2018-11-26T04:06:32.305Z,922.30
2018-11-26T04:07:32.305Z,922.28
2018-11-26T04:08:32.259Z,922.29
2018-11-26T04:09:32.240Z,922.29
2018-11-26T04:10:32.238Z,922.30
2018-11-26T04:11:32.290Z,922.40
2018-11-26T04:12:32.216Z,922.33
2018-11-26T04:13:32.203Z,922.29
2018-11-26T04:14:32.192Z,922.31
2018-11-26T04:15:32.187Z,922.33
2018-11-26T04:16:32.178Z,922.31
2018-11-26T04:17:32.194Z,922.31
2018-11-26T04:18:32.147Z,922.34
2018-11-26T04:19:32.135Z,922.34
2018-11-26T04:20:32.125Z,922.31
2018-11-26T04:21:32.131Z,922.26
2018-11-26T04:22:32.105Z,922.31
2018-11-26T04:23:32.089Z,922.31
2018-11-26T04:24:32.079Z,922.30
2018-11-26T04:25:32.072Z,922.31
2018-11-26T04:26:32.102Z,922.32
2018-11-26T04:27:32.047Z,922.34
2018-11-26T04:28:32.031Z,922.32
2018-11-26T04:29:32.032Z,922.33
2018-11-26T04:30:32.021Z,922.31
2018-11-26T04:31:32.020Z,922.30
2018-11-26T04:32:31.988Z,922.31
2018-11-26T04:33:31.984Z,922.29
2018-11-26T04:34:31.995Z,922.30
2018-11-26T04:35:31.962Z,922.29
2018-11-26T04:36:31.982Z,922.31
2018-11-26T04:37:31.959Z,922.33
2018-11-26T04:38:31.927Z,922.32
2018-11-26T04:39:31.916Z,922.35
2018-11-26T04:40:31.906Z,922.39
2018-11-26T04:41:31.915Z,922.35
2018-11-26T04:42:31.897Z,922.37
2018-11-26T04:43:31.887Z,922.36
2018-11-26T04:44:31.857Z,922.37
2018-11-26T04:45:31.860Z,922.36
2018-11-26T04:46:31.852Z,922.32
2018-11-26T04:47:31.875Z,922.33
2018-11-26T04:48:31.816Z,922.32
2018-11-26T04:49:31.811Z,922.34
2018-11-26T04:50:31.797Z,922.33
2018-11-26T04:51:31.803Z,922.33
2018-11-26T04:52:31.788Z,922.30
2018-11-26T04:53:31.760Z,922.33
2018-11-26T04:54:31.750Z,922.31
2018-11-26T04:55:31.749Z,922.32
2018-11-26T04:56:31.736Z,922.29
2018-11-26T04:57:31.751Z,922.33
2018-11-26T04:58:31.704Z,922.31
2018-11-26T04:59:31.693Z,922.28
2018-11-26T05:00:31.708Z,922.28
2018-11-26T05:01:31.671Z,922.29
2018-11-26T05:02:31.677Z,922.32
2018-11-26T05:03:31.664Z,922.31
2018-11-26T05:04:31.645Z,922.34
2018-11-26T05:05:31.632Z,922.34
2018-11-26T05:06:31.627Z,922.36
2018-11-26T05:07:31.626Z,922.38
2018-11-26T05:08:31.610Z,922.33
2018-11-26T05:09:31.625Z,922.39
2018-11-26T05:10:31.575Z,922.41
2018-11-26T05:11:31.567Z,922.39
2018-11-26T05:12:31.570Z,922.40
2018-11-26T05:13:31.553Z,922.38
2018-11-26T05:14:31.529Z,922.40
2018-11-26T05:15:31.536Z,922.39
2018-11-26T05:16:31.515Z,922.37
2018-11-26T05:17:31.523Z,922.39
2018-11-26T05:18:31.493Z,922.41
2018-11-26T05:19:31.502Z,922.41
2018-11-26T05:20:31.482Z,922.41
2018-11-26T05:21:31.466Z,922.46
2018-11-26T05:22:31.459Z,922.44
2018-11-26T05:23:31.443Z,922.44
2018-11-26T05:24:31.434Z,922.46
2018-11-26T05:25:31.430Z,922.40
2018-11-26T05:26:31.418Z,922.43
2018-11-26T05:27:31.417Z,922.39
2018-11-26T05:28:31.382Z,922.39
2018-11-26T05:29:31.374Z,922.39
2018-11-26T05:30:31.375Z,922.38
2018-11-26T05:31:31.349Z,922.38
2018-11-26T05:32:31.356Z,922.33
2018-11-26T05:33:31.347Z,922.37
2018-11-26T05:34:31.326Z,922.36
2018-11-26T05:35:31.302Z,922.38
2018-11-26T05:36:31.297Z,922.37
2018-11-26T05:37:31.313Z,922.38
2018-11-26T05:38:31.270Z,922.39
2018-11-26T05:39:31.274Z,922.39
2018-11-26T05:40:31.252Z,922.37
2018-11-26T05:41:31.246Z,922.38
2018-11-26T05:42:31.264Z,922.39
2018-11-26T05:43:31.240Z,922.37
2018-11-26T05:44:31.216Z,922.41
2018-11-26T05:45:31.196Z,922.39
2018-11-26T05:46:31.189Z,922.43
2018-11-26T05:47:31.217Z,922.41
2018-11-26T05:48:31.177Z,922.38
2018-11-26T05:49:31.147Z,922.39
2018-11-26T05:50:31.141Z,922.40
2018-11-26T05:51:31.125Z,922.36
2018-11-26T05:52:31.135Z,922.39
2018-11-26T05:53:31.142Z,922.38
2018-11-26T05:54:31.096Z,922.39
2018-11-26T05:55:31.094Z,922.37
2018-11-26T05:56:31.069Z,922.36
2018-11-26T05:57:31.085Z,922.34
2018-11-26T05:58:31.047Z,922.36
2018-11-26T05:59:31.040Z,922.36
2018-11-26T06:00:31.034Z,922.35
2018-11-26T06:01:31.016Z,922.33
2018-11-26T06:02:31.021Z,922.33
2018-11-26T06:03:30.993Z,922.30
2018-11-26T06:04:30.985Z,922.34
2018-11-26T06:05:30.975Z,922.32
2018-11-26T06:06:30.969Z,922.31
2018-11-26T06:07:30.982Z,922.35
2018-11-26T06:08:30.946Z,922.32
2018-11-26T06:09:30.933Z,922.38
2018-11-26T06:10:30.919Z,922.39
2018-11-26T06:11:30.907Z,922.32
2018-11-26T06:12:30.896Z,922.34
2018-11-26T06:13:31.047Z,922.33
2018-11-26T06:14:30.881Z,922.33
2018-11-26T06:15:30.891Z,922.31
2018-11-26T06:16:30.850Z,922.29
2018-11-26T06:17:30.863Z,922.29
2018-11-26T06:18:30.851Z,922.32
2018-11-26T06:19:30.821Z,922.34
2018-11-26T06:20:30.823Z,922.33
2018-11-26T06:21:30.805Z,922.35
2018-11-26T06:22:30.833Z,922.36
2018-11-26T06:23:30.789Z,922.37
2018-11-26T06:24:30.765Z,922.42
2018-11-26T06:25:30.762Z,922.40
2018-11-26T06:26:30.749Z,922.40
2018-11-26T06:27:30.764Z,922.45
2018-11-26T06:28:30.741Z,922.48
2018-11-26T06:29:30.709Z,922.48
2018-11-26T06:30:30.705Z,922.49
2018-11-26T06:31:30.689Z,922.47
2018-11-26T06:32:30.677Z,922.52
2018-11-26T06:33:30.680Z,922.51
2018-11-26T06:34:30.700Z,922.52
2018-11-26T06:35:30.649Z,922.53
2018-11-26T06:36:30.645Z,922.61
2018-11-26T06:37:30.622Z,922.63
2018-11-26T06:38:30.627Z,922.63
2018-11-26T06:39:30.612Z,922.65
2018-11-26T06:40:30.599Z,922.69
2018-11-26T06:41:30.602Z,922.63
2018-11-26T06:42:30.614Z,922.65
2018-11-26T06:43:30.572Z,922.64
2018-11-26T06:44:30.545Z,922.65
2018-11-26T06:45:30.541Z,922.59
2018-11-26T06:46:30.524Z,922.61
2018-11-26T06:47:30.560Z,922.60
2018-11-26T06:48:30.517Z,922.63
2018-11-26T06:49:30.492Z,922.67
2018-11-26T06:50:30.487Z,922.64
2018-11-26T06:51:30.467Z,922.64
2018-11-26T06:52:30.477Z,922.64
2018-11-26T06:53:30.463Z,922.65
2018-11-26T06:54:30.444Z,922.66
2018-11-26T06:55:30.434Z,922.68
2018-11-26T06:56:30.414Z,922.68
2018-11-26T06:57:30.412Z,922.70
2018-11-26T06:58:30.416Z,922.70
2018-11-26T06:59:30.396Z,922.69
2018-11-26T07:00:30.371Z,922.69
2018-11-26T07:01:30.380Z,922.70
2018-11-26T07:02:30.353Z,922.71
2018-11-26T07:03:30.376Z,922.71
2018-11-26T07:04:30.344Z,922.73
2018-11-26T07:05:30.314Z,922.73
2018-11-26T07:06:30.309Z,922.72
2018-11-26T07:07:30.306Z,922.71
2018-11-26T07:08:30.327Z,922.74
2018-11-26T07:09:30.278Z,922.71
2018-11-26T07:10:30.289Z,922.70
2018-11-26T07:11:30.249Z,922.69
2018-11-26T07:12:30.250Z,922.68
2018-11-26T07:13:30.280Z,922.67
2018-11-26T07:14:30.216Z,922.70
2018-11-26T07:15:30.208Z,922.74
2018-11-26T07:16:30.200Z,922.71
2018-11-26T07:17:30.189Z,922.71
2018-11-26T07:18:30.177Z,922.75
2018-11-26T07:19:30.179Z,922.76
2018-11-26T07:20:30.168Z,922.78
2018-11-26T07:21:30.141Z,922.75
2018-11-26T07:22:30.127Z,922.78
2018-11-26T07:23:30.124Z,922.80
2018-11-26T07:24:30.127Z,922.79
2018-11-26T07:25:30.102Z,922.78
2018-11-26T07:26:30.094Z,922.78
2018-11-26T07:27:30.079Z,922.77
2018-11-26T07:28:30.062Z,922.76
2018-11-26T07:29:30.081Z,922.77
2018-11-26T07:30:30.042Z,922.76
2018-11-26T07:31:30.030Z,922.74
2018-11-26T07:32:30.028Z,922.75
2018-11-26T07:33:30.028Z,922.78
2018-11-26T07:34:30.014Z,922.80
2018-11-26T07:35:29.984Z,922.86
2018-11-26T07:36:29.976Z,922.83
2018-11-26T07:37:29.964Z,922.87
2018-11-26T07:38:29.958Z,922.89
2018-11-26T07:39:29.968Z,922.87
2018-11-26T07:40:29.932Z,922.85
2018-11-26T07:41:29.921Z,922.91
2018-11-26T07:42:29.911Z,922.88
2018-11-26T07:43:29.906Z,922.87
2018-11-26T07:44:29.914Z,922.89
2018-11-26T07:45:29.878Z,922.91
2018-11-26T07:46:29.863Z,922.95
2018-11-26T07:47:29.863Z,922.93
2018-11-26T07:48:29.841Z,922.93
2018-11-26T07:49:29.862Z,922.98
2018-11-26T07:50:29.821Z,922.96
2018-11-26T07:51:29.816Z,922.95
2018-11-26T07:52:29.797Z,922.98
2018-11-26T07:53:29.792Z,922.95
2018-11-26T07:54:29.790Z,922.92
2018-11-26T07:55:29.770Z,922.96
2018-11-26T07:56:29.753Z,922.97
2018-11-26T07:57:29.745Z,922.91
2018-11-26T07:58:29.731Z,922.94
2018-11-26T07:59:29.739Z,922.94
2018-11-26T08:00:29.708Z,922.97
2018-11-26T08:01:29.712Z,922.97
2018-11-26T08:02:29.693Z,922.97
2018-11-26T08:03:29.680Z,922.96
2018-11-26T08:04:29.686Z,922.97
2018-11-26T08:05:29.660Z,922.94
2018-11-26T08:06:29.645Z,922.96
2018-11-26T08:07:29.644Z,922.93
2018-11-26T08:08:29.620Z,922.96
2018-11-26T08:09:29.638Z,922.98
2018-11-26T08:10:29.610Z,922.94
2018-11-26T08:11:29.586Z,922.97
2018-11-26T08:12:29.592Z,922.95
2018-11-26T08:13:29.567Z,922.99
2018-11-26T08:14:29.569Z,922.99
2018-11-26T08:15:29.543Z,923.00
2018-11-26T08:16:29.532Z,923.04
2018-11-26T08:17:29.523Z,923.03
2018-11-26T08:18:29.514Z,923.05
2018-11-26T08:19:29.525Z,923.04
2018-11-26T08:20:29.496Z,923.11
2018-11-26T08:21:29.483Z,923.09
2018-11-26T08:22:29.471Z,923.10
2018-11-26T08:23:29.460Z,923.14
2018-11-26T08:24:29.458Z,923.18
2018-11-26T08:25:29.437Z,923.13
2018-11-26T08:26:29.439Z,923.16
2018-11-26T08:27:29.414Z,923.14
2018-11-26T08:28:29.402Z,923.20
2018-11-26T08:29:29.409Z,923.19
2018-11-26T08:30:29.389Z,923.19
2018-11-26T08:31:29.366Z,923.20
2018-11-26T08:32:33.996Z,923.19
2018-11-26T08:33:29.352Z,923.19
2018-11-26T08:34:29.372Z,923.17
2018-11-26T08:35:29.325Z,923.20
2018-11-26T08:36:29.335Z,923.21
2018-11-26T08:37:29.301Z,923.18
2018-11-26T08:38:29.293Z,923.16
2018-11-26T08:39:29.282Z,923.20
2018-11-26T08:40:29.285Z,923.19
2018-11-26T08:41:29.264Z,923.18
2018-11-26T08:42:29.270Z,923.17
2018-11-26T08:43:29.263Z,923.19
2018-11-26T08:44:29.225Z,923.19
2018-11-26T08:45:29.248Z,923.22
2018-11-26T08:46:29.249Z,923.25
2018-11-26T08:47:29.202Z,923.24
2018-11-26T08:48:29.183Z,923.27
2018-11-26T08:49:29.175Z,923.26
2018-11-26T08:50:29.187Z,923.25
2018-11-26T08:51:29.153Z,923.24
2018-11-26T08:52:29.138Z,923.24
2018-11-26T08:53:29.127Z,923.22
2018-11-26T08:54:29.115Z,923.20
2018-11-26T08:55:29.127Z,923.18
2018-11-26T08:56:29.099Z,923.18
2018-11-26T08:57:29.084Z,923.16
2018-11-26T08:58:29.072Z,923.19
2018-11-26T08:59:29.065Z,923.19
2018-11-26T09:00:29.070Z,923.21
2018-11-26T09:01:29.035Z,923.19
2018-11-26T09:02:29.026Z,923.26
2018-11-26T09:03:29.048Z,923.22
2018-11-26T09:04:29.028Z,923.25
2018-11-26T09:05:29.013Z,923.24
2018-11-26T09:06:28.980Z,923.26
2018-11-26T09:07:28.972Z,923.25
2018-11-26T09:08:28.965Z,923.29
2018-11-26T09:09:32.781Z,923.30
2018-11-26T09:10:28.954Z,923.34
2018-11-26T09:11:28.939Z,923.31
2018-11-26T09:12:28.922Z,923.33
2018-11-26T09:13:28.911Z,923.32
2018-11-26T09:14:28.892Z,923.36
2018-11-26T09:15:28.900Z,923.40
2018-11-26T09:16:28.873Z,923.41
2018-11-26T09:17:28.861Z,923.39
2018-11-26T09:18:28.849Z,923.41
2018-11-26T09:19:28.844Z,923.39
2018-11-26T09:20:28.907Z,923.40
2018-11-26T09:21:28.837Z,923.40
2018-11-26T09:22:28.806Z,923.41
2018-11-26T09:23:28.794Z,923.41
2018-11-26T09:24:28.784Z,923.39
2018-11-26T09:25:28.787Z,923.45
2018-11-26T09:26:28.787Z,923.41
2018-11-26T09:27:28.764Z,923.38
2018-11-26T09:28:28.755Z,923.41
2018-11-26T09:29:28.729Z,923.42
2018-11-26T09:30:28.745Z,923.41
2018-11-26T09:31:28.723Z,923.37
2018-11-26T09:32:28.696Z,923.40
2018-11-26T09:33:28.703Z,923.41
2018-11-26T09:34:28.675Z,923.41
2018-11-26T09:35:28.664Z,923.40
2018-11-26T09:36:28.671Z,923.41
2018-11-26T09:37:28.641Z,923.42
2018-11-26T09:38:28.632Z,923.42
2018-11-26T09:39:28.628Z,923.45
2018-11-26T09:40:28.621Z,923.42
2018-11-26T09:41:28.613Z,923.39
2018-11-26T09:42:28.611Z,923.42
2018-11-26T09:43:28.581Z,923.42
2018-11-26T09:44:28.567Z,923.43
2018-11-26T09:45:28.560Z,923.41
2018-11-26T09:46:28.573Z,923.43
2018-11-26T09:47:28.539Z,923.43
2018-11-26T09:48:28.520Z,923.47
2018-11-26T09:49:28.510Z,923.47
2018-11-26T09:50:28.498Z,923.48
2018-11-26T09:51:28.512Z,923.46
2018-11-26T09:52:28.485Z,923.52
2018-11-26T09:53:28.464Z,923.48
2018-11-26T09:54:28.460Z,923.51
2018-11-26T09:55:28.443Z,923.54
2018-11-26T09:56:28.449Z,923.52
2018-11-26T09:57:28.436Z,923.51
2018-11-26T09:58:28.424Z,923.48
2018-11-26T09:59:28.400Z,923.54
2018-11-26T10:00:28.391Z,923.50
2018-11-26T10:01:28.398Z,923.52
2018-11-26T10:02:28.370Z,923.50
2018-11-26T10:03:28.359Z,923.51
2018-11-26T10:04:28.346Z,923.50
2018-11-26T10:05:28.350Z,923.50
2018-11-26T10:06:28.339Z,923.50
2018-11-26T10:07:28.313Z,923.48
2018-11-26T10:08:28.309Z,923.53
2018-11-26T10:09:28.293Z,923.47
2018-11-26T10:10:28.279Z,923.46
2018-11-26T10:11:28.289Z,923.49
2018-11-26T10:12:28.257Z,923.49
2018-11-26T10:13:28.246Z,923.44
2018-11-26T10:14:28.252Z,923.44
2018-11-26T10:15:28.229Z,923.39
2018-11-26T10:16:28.235Z,923.39
2018-11-26T10:17:28.205Z,923.41
2018-11-26T10:18:28.203Z,923.43
2018-11-26T10:19:28.612Z,923.39
2018-11-26T10:20:28.171Z,923.38
2018-11-26T10:21:28.183Z,923.34
2018-11-26T10:22:28.150Z,923.34
2018-11-26T10:23:28.136Z,923.38
2018-11-26T10:24:28.133Z,923.35
2018-11-26T10:25:28.122Z,923.34
2018-11-26T10:26:28.138Z,923.34
2018-11-26T10:27:28.093Z,923.33
2018-11-26T10:28:28.083Z,923.32
2018-11-26T10:29:28.073Z,923.36
2018-11-26T10:30:28.067Z,923.35
2018-11-26T10:31:28.082Z,923.36
2018-11-26T10:32:28.044Z,923.34
2018-11-26T10:33:28.041Z,923.38
2018-11-26T10:34:28.017Z,923.36
2018-11-26T10:35:28.007Z,923.37
2018-11-26T10:36:27.995Z,923.34
2018-11-26T10:37:28.004Z,923.36
2018-11-26T10:38:27.980Z,923.39
2018-11-26T10:39:27.967Z,923.36
2018-11-26T10:40:27.956Z,923.39
2018-11-26T10:41:27.942Z,923.41
2018-11-26T10:42:27.946Z,923.37
2018-11-26T10:43:27.929Z,923.38
2018-11-26T10:44:27.913Z,923.38
2018-11-26T10:45:27.894Z,923.38
2018-11-26T10:46:27.885Z,923.36
2018-11-26T10:47:27.901Z,923.39
2018-11-26T10:48:27.867Z,923.37
2018-11-26T10:49:27.852Z,923.36
2018-11-26T10:50:27.841Z,923.35
2018-11-26T10:51:27.841Z,923.37
2018-11-26T10:52:27.835Z,923.29
2018-11-26T10:53:27.811Z,923.30
2018-11-26T10:54:27.796Z,923.30
2018-11-26T10:55:27.796Z,923.28
2018-11-26T10:56:27.775Z,923.28
2018-11-26T10:57:27.788Z,923.24
2018-11-26T10:58:27.757Z,923.26
2018-11-26T10:59:27.745Z,923.23
2018-11-26T11:00:27.733Z,923.19
2018-11-26T11:01:27.720Z,923.23
2018-11-26T11:02:27.721Z,923.20
2018-11-26T11:03:27.704Z,923.21
2018-11-26T11:04:27.690Z,923.20
2018-11-26T11:05:27.686Z,923.23
2018-11-26T11:06:27.667Z,923.23
2018-11-26T11:07:27.670Z,923.20
2018-11-26T11:08:27.643Z,923.26
2018-11-26T11:09:27.631Z,923.23
2018-11-26T11:10:27.628Z,923.23
2018-11-26T11:11:27.612Z,923.24
2018-11-26T11:12:27.621Z,923.24
2018-11-26T11:13:27.592Z,923.21
2018-11-26T11:14:27.594Z,923.23
2018-11-26T11:15:27.568Z,923.19
2018-11-26T11:16:27.567Z,923.21
2018-11-26T11:17:27.566Z,923.19
2018-11-26T11:18:27.534Z,923.21
2018-11-26T11:19:27.537Z,923.19
2018-11-26T11:20:27.535Z,923.26
2018-11-26T11:21:27.512Z,923.20
2018-11-26T11:22:27.507Z,923.23
2018-11-26T11:23:27.477Z,923.24
2018-11-26T11:24:27.491Z,923.22
2018-11-26T11:25:27.515Z,923.23
2018-11-26T11:26:28.265Z,923.20
2018-11-26T11:27:27.447Z,923.23
2018-11-26T11:28:27.435Z,923.21
2018-11-26T11:29:27.433Z,923.20
2018-11-26T11:30:27.401Z,923.18
2018-11-26T11:31:27.387Z,923.18
2018-11-26T11:32:27.402Z,923.20
2018-11-26T11:34:27.364Z,923.15
2018-11-26T11:35:27.351Z,923.14
2018-11-26T11:36:27.339Z,923.16
2018-11-26T11:37:27.339Z,923.21
2018-11-26T11:38:28.291Z,923.21
2018-11-26T11:39:27.302Z,923.25
2018-11-26T11:40:27.301Z,923.26
2018-11-26T11:41:27.285Z,923.24
2018-11-26T11:42:27.292Z,923.23
2018-11-26T11:43:27.263Z,923.26
2018-11-26T11:44:27.259Z,923.26
2018-11-26T11:45:27.241Z,923.24
2018-11-26T11:46:27.224Z,923.30
2018-11-26T11:47:27.234Z,923.28
2018-11-26T11:48:27.203Z,923.35
2018-11-26T11:49:27.193Z,923.32
2018-11-26T11:50:27.197Z,923.34
2018-11-26T11:51:27.168Z,923.32
2018-11-26T11:52:27.174Z,923.32
2018-11-26T11:53:27.152Z,923.30
2018-11-26T11:54:27.143Z,923.33
2018-11-26T11:55:27.131Z,923.36
2018-11-26T11:56:27.134Z,923.34
2018-11-26T11:57:27.150Z,923.33
2018-11-26T11:58:27.097Z,923.34
2018-11-26T11:59:27.087Z,923.34
2018-11-26T12:00:27.080Z,923.33
2018-11-26T12:01:27.059Z,923.33
2018-11-26T12:02:27.061Z,923.31
2018-11-26T12:03:27.208Z,923.33
2018-11-26T12:04:27.035Z,923.34
2018-11-26T12:05:27.048Z,923.35
2018-11-26T12:06:27.008Z,923.34
2018-11-26T12:07:27.013Z,923.34
2018-11-26T12:08:27.002Z,923.36
2018-11-26T12:09:26.988Z,923.33
2018-11-26T12:10:26.985Z,923.37
2018-11-26T12:11:26.957Z,923.38
2018-11-26T12:12:26.978Z,923.43
2018-11-26T12:13:26.944Z,923.39
2018-11-26T12:14:26.926Z,923.41
2018-11-26T12:15:26.918Z,923.38
2018-11-26T12:16:26.911Z,923.36
2018-11-26T12:17:26.912Z,923.42
2018-11-26T12:18:26.871Z,923.38
2018-11-26T12:19:26.866Z,923.39
2018-11-26T12:20:26.870Z,923.37
2018-11-26T12:21:26.839Z,923.40
2018-11-26T12:22:26.844Z,923.37
2018-11-26T12:23:26.818Z,923.34
2018-11-26T12:24:26.807Z,923.34
2018-11-26T12:25:26.794Z,923.33
2018-11-26T12:26:26.793Z,923.33
2018-11-26T12:27:26.791Z,923.37
2018-11-26T12:28:26.762Z,923.29
2018-11-26T12:29:26.802Z,923.30